createdAt,value
2017-09-12T00:01:42.222Z,72.60
2017-09-12T00:04:08.733Z,72.40
2017-09-12T00:06:35.526Z,72.10
2017-09-12T00:18:52.460Z,72.80
2017-09-12T00:21:19.227Z,71.30
2017-09-12T00:23:45.725Z,71.30
2017-09-12T00:26:12.637Z,71.50
2017-09-12T00:28:40.400Z,71.80
2017-09-12T00:31:07.582Z,71.70
2017-09-12T00:33:34.373Z,71.70
2017-09-12T00:36:01.389Z,72.10
2017-09-12T00:38:27.977Z,72.80
2017-09-12T00:40:55.055Z,71.60
2017-09-12T00:43:23.426Z,71.50
2017-09-12T00:45:50.426Z,72.90
2017-09-12T00:48:18.444Z,71.90
2017-09-12T00:50:45.986Z,71.60
2017-09-12T00:53:12.753Z,71.50
2017-09-12T00:55:39.545Z,71.40
2017-09-12T00:58:06.570Z,71.00
2017-09-12T01:00:33.806Z,71.00
2017-09-12T01:03:00.680Z,71.30
2017-09-12T01:05:27.891Z,71.70
2017-09-12T01:07:54.729Z,72.00
2017-09-12T01:10:20.971Z,71.90
2017-09-12T01:12:47.530Z,72.80
2017-09-12T01:15:15.183Z,73.60
2017-09-12T01:17:41.976Z,73.50
2017-09-12T01:20:08.345Z,72.40
2017-09-12T01:22:35.253Z,73.00
2017-09-12T01:25:02.504Z,72.30
2017-09-12T01:27:29.746Z,72.30
2017-09-12T01:29:57.514Z,72.10
2017-09-12T01:32:24.096Z,72.50
2017-09-12T01:34:50.364Z,73.10
2017-09-12T01:37:17.481Z,73.60
2017-09-12T01:39:44.991Z,73.20
2017-09-12T01:42:13.562Z,74.90
2017-09-12T01:44:39.906Z,74.40
2017-09-12T01:47:06.126Z,73.30
2017-09-12T01:49:33.005Z,72.30
2017-09-12T01:52:00.220Z,73.50
2017-09-12T01:54:26.434Z,72.80
2017-09-12T01:56:59.365Z,72.30
2017-09-12T01:59:25.799Z,72.30
2017-09-12T02:01:53.038Z,72.90
2017-09-12T02:04:19.616Z,74.60
2017-09-12T02:06:46.773Z,75.50
2017-09-12T02:09:13.726Z,75.80
2017-09-12T02:11:41.331Z,76.90
2017-09-12T02:14:08.555Z,76.70
2017-09-12T02:16:35.464Z,75.30
2017-09-12T02:19:02.861Z,74.40
2017-09-12T02:21:29.623Z,73.60
2017-09-12T02:23:55.824Z,73.20
2017-09-12T02:26:22.045Z,73.20
2017-09-12T02:28:49.453Z,73.00
2017-09-12T02:31:16.613Z,73.70
2017-09-12T02:33:45.112Z,73.20
2017-09-12T02:36:13.356Z,73.60
2017-09-12T02:38:40.658Z,73.40
2017-09-12T02:41:07.548Z,74.50
2017-09-12T02:43:34.168Z,73.60
2017-09-12T02:46:00.924Z,74.40
2017-09-12T02:48:27.689Z,74.10
2017-09-12T02:50:55.307Z,74.60
2017-09-12T02:53:22.076Z,74.30
2017-09-12T02:55:48.279Z,74.60
2017-09-12T02:58:16.156Z,75.90
2017-09-12T03:00:42.612Z,76.30
2017-09-12T03:03:10.401Z,77.20
2017-09-12T03:05:37.497Z,78.00
2017-09-12T03:08:03.703Z,77.80
2017-09-12T03:10:31.098Z,78.30
2017-09-12T03:12:58.315Z,77.10
2017-09-12T03:15:24.869Z,78.20
2017-09-12T03:17:51.294Z,78.40
2017-09-12T03:20:17.878Z,77.80
2017-09-12T03:22:45.074Z,77.20
2017-09-12T03:25:11.905Z,77.10
2017-09-12T03:27:38.189Z,77.50
2017-09-12T03:30:05.611Z,77.80
2017-09-12T03:32:31.836Z,78.00
2017-09-12T03:34:58.619Z,77.60
2017-09-12T03:37:26.252Z,78.00
2017-09-12T03:39:53.502Z,77.90
2017-09-12T03:42:19.939Z,77.90
2017-09-12T03:44:46.257Z,77.60
2017-09-12T03:47:13.930Z,78.40
2017-09-12T03:49:40.345Z,78.20
2017-09-12T03:52:07.764Z,78.30
2017-09-12T03:54:35.300Z,77.60
2017-09-12T03:57:01.525Z,77.50
2017-09-12T03:59:28.170Z,77.00
2017-09-12T04:01:55.153Z,76.80
2017-09-12T04:04:21.409Z,76.70
2017-09-12T04:06:48.768Z,76.70
2017-09-12T04:09:16.486Z,76.70
2017-09-12T04:11:42.708Z,77.20
2017-09-12T04:14:10.009Z,76.10
2017-09-12T04:16:37.511Z,75.80
2017-09-12T04:19:04.471Z,75.60
2017-09-12T04:21:30.732Z,75.50
2017-09-12T04:23:57.489Z,75.50
2017-09-12T04:26:24.728Z,75.70
2017-09-12T04:28:52.316Z,76.90
2017-09-12T04:31:18.571Z,77.00
2017-09-12T04:33:45.540Z,76.70
2017-09-12T04:36:11.788Z,76.60
2017-09-12T04:38:38.693Z,76.70
2017-09-12T04:41:06.710Z,76.40
2017-09-12T04:43:34.678Z,76.30
2017-09-12T04:46:01.864Z,76.30
2017-09-12T04:48:28.861Z,75.80
2017-09-12T04:50:55.495Z,75.80
2017-09-12T04:53:23.049Z,75.90
2017-09-12T04:55:49.991Z,75.70
2017-09-12T04:58:16.897Z,75.60
2017-09-12T05:00:44.391Z,75.90
2017-09-12T05:03:10.617Z,75.90
2017-09-12T05:05:37.783Z,75.90
2017-09-12T05:08:04.104Z,75.90
2017-09-12T05:10:31.343Z,75.90
2017-09-12T05:12:59.624Z,75.70
2017-09-12T05:15:27.153Z,76.10
2017-09-12T05:17:54.129Z,75.50
2017-09-12T05:20:21.042Z,75.50
2017-09-12T05:22:47.309Z,75.60
2017-09-12T05:25:14.657Z,76.20
2017-09-12T05:27:40.946Z,75.70
2017-09-12T05:30:08.057Z,76.00
2017-09-12T05:32:34.357Z,75.90
2017-09-12T05:35:01.907Z,75.40
2017-09-12T05:37:29.582Z,74.60
2017-09-12T05:39:55.808Z,74.60
2017-09-12T05:42:22.389Z,74.40
2017-09-12T05:44:49.825Z,74.20
2017-09-12T05:47:18.116Z,74.10
2017-09-12T05:49:45.857Z,74.10
2017-09-12T05:52:13.635Z,74.00
2017-09-12T05:54:39.889Z,73.90
2017-09-12T05:57:07.024Z,73.20
2017-09-12T05:59:34.016Z,73.00
2017-09-12T06:02:00.601Z,73.00
2017-09-12T06:04:26.855Z,73.00
2017-09-12T06:06:53.814Z,74.00
2017-09-12T06:09:20.028Z,73.90
2017-09-12T06:11:47.675Z,74.70
2017-09-12T06:14:15.795Z,74.40
2017-09-12T06:16:42.535Z,74.40
2017-09-12T06:19:08.761Z,75.40
2017-09-12T06:21:36.018Z,75.00
2017-09-12T06:24:03.121Z,74.60
2017-09-12T06:26:30.399Z,74.60
2017-09-12T06:28:56.628Z,75.50
2017-09-12T06:31:22.808Z,72.50
2017-09-12T06:33:49.074Z,68.50
2017-09-12T06:36:17.023Z,65.80
2017-09-12T06:38:43.290Z,65.90
2017-09-12T06:41:10.405Z,64.20
2017-09-12T06:43:38.299Z,66.60
2017-09-12T06:46:05.117Z,66.60
2017-09-12T06:48:32.089Z,64.00
2017-09-12T06:50:58.319Z,64.00
2017-09-12T06:53:24.555Z,63.40
2017-09-12T06:55:50.783Z,65.00
2017-09-12T06:58:18.000Z,65.70
2017-09-12T07:00:45.851Z,67.10
2017-09-12T07:03:13.990Z,66.80
2017-09-12T07:05:42.397Z,66.80
2017-09-12T07:08:10.179Z,67.10
2017-09-12T07:10:38.091Z,66.40
2017-09-12T07:13:04.889Z,66.40
2017-09-12T07:15:32.434Z,67.60
2017-09-12T07:17:59.498Z,67.60
2017-09-12T07:20:26.496Z,66.70
2017-09-12T07:22:54.230Z,66.70
2017-09-12T07:25:21.504Z,66.50
2017-09-12T07:27:48.329Z,66.40
2017-09-12T07:30:15.406Z,66.00
2017-09-12T07:32:42.146Z,66.40
2017-09-12T07:35:08.916Z,66.40
2017-09-12T07:37:35.682Z,66.40
2017-09-12T07:40:01.935Z,66.80
2017-09-12T07:42:28.286Z,66.70
2017-09-12T07:44:55.405Z,66.20
2017-09-12T07:47:21.851Z,66.20
2017-09-12T07:49:49.073Z,66.90
2017-09-12T07:52:16.836Z,66.10
2017-09-12T07:54:43.578Z,66.70
2017-09-12T07:57:11.249Z,66.50
2017-09-12T07:59:37.526Z,64.80
2017-09-12T08:02:03.732Z,65.10
2017-09-12T08:04:30.049Z,66.40
2017-09-12T08:06:56.256Z,66.20
2017-09-12T08:09:22.460Z,66.40
2017-09-12T08:11:48.664Z,64.50
2017-09-12T08:14:14.913Z,62.80
2017-09-12T08:16:41.308Z,63.30
2017-09-12T08:19:09.328Z,63.40
2017-09-12T08:21:37.794Z,61.60
2017-09-12T08:24:04.057Z,61.50
2017-09-12T08:26:31.280Z,60.80
2017-09-12T08:38:45.201Z,60.00
2017-09-12T08:41:13.182Z,61.20
2017-09-12T08:43:39.405Z,61.20
2017-09-12T08:46:05.642Z,59.80
2017-09-12T08:48:32.293Z,60.40
2017-09-12T08:50:58.551Z,59.60
2017-09-12T08:53:24.768Z,59.60
2017-09-12T08:55:50.984Z,59.40
2017-09-12T08:58:18.209Z,59.90
2017-09-12T09:00:44.498Z,57.70
2017-09-12T09:03:11.239Z,57.70
2017-09-12T09:05:39.233Z,58.60
2017-09-12T09:08:05.475Z,58.10
2017-09-12T09:10:31.714Z,57.50
2017-09-12T09:12:57.917Z,57.40
2017-09-12T09:15:24.803Z,55.90
2017-09-12T09:17:51.019Z,56.50
2017-09-12T09:20:17.787Z,57.10
2017-09-12T09:22:44.603Z,56.40
2017-09-12T09:25:11.820Z,56.60
2017-09-12T09:27:38.093Z,57.10
2017-09-12T09:30:04.312Z,57.70
2017-09-12T09:32:30.821Z,56.70
2017-09-12T09:34:57.594Z,57.00
2017-09-12T09:37:24.334Z,57.90
2017-09-12T09:39:52.333Z,59.00
2017-09-12T09:42:19.791Z,59.00
2017-09-12T09:44:46.122Z,60.60
2017-09-12T09:47:13.302Z,60.70
2017-09-12T09:49:41.184Z,61.00
2017-09-12T09:52:07.399Z,61.20
2017-09-12T09:54:33.663Z,62.60
2017-09-12T09:56:59.873Z,62.60
2017-09-12T09:59:26.656Z,62.00
2017-09-12T10:01:54.638Z,63.50
2017-09-12T10:04:21.275Z,63.50
2017-09-12T10:06:48.445Z,64.30
2017-09-12T10:09:16.532Z,63.50
2017-09-12T10:11:42.759Z,63.40
2017-09-12T10:14:09.960Z,63.00
2017-09-12T10:16:36.947Z,63.40
2017-09-12T10:19:04.678Z,63.30
2017-09-12T10:21:32.009Z,64.60
2017-09-12T10:23:58.195Z,64.80
2017-09-12T10:26:24.429Z,65.50
2017-09-12T10:28:50.661Z,65.30
2017-09-12T10:31:16.917Z,66.10
2017-09-12T10:33:44.072Z,66.50
2017-09-12T10:36:11.005Z,66.80
2017-09-12T10:38:37.799Z,67.90
2017-09-12T10:41:04.751Z,66.80
2017-09-12T10:43:31.734Z,66.20
2017-09-12T10:45:58.645Z,66.20
2017-09-12T10:48:25.391Z,65.30
2017-09-12T10:50:52.805Z,66.20
2017-09-12T10:53:19.596Z,65.80
2017-09-12T10:55:45.820Z,66.70
2017-09-12T10:58:12.046Z,67.20
2017-09-12T11:00:38.277Z,68.10
2017-09-12T11:03:04.481Z,68.00
2017-09-12T11:05:31.447Z,70.30
2017-09-12T11:07:58.275Z,70.30
2017-09-12T11:10:24.536Z,71.40
2017-09-12T11:12:50.736Z,71.80
2017-09-12T11:15:17.653Z,72.70
2017-09-12T11:17:44.725Z,72.60
2017-09-12T11:20:10.959Z,72.60
2017-09-12T11:22:37.708Z,72.70
2017-09-12T11:25:03.988Z,72.60
2017-09-12T11:27:30.788Z,71.90
2017-09-12T11:29:57.524Z,72.40
2017-09-12T11:32:23.763Z,72.00
2017-09-12T11:34:50.887Z,71.90
2017-09-12T11:37:17.127Z,71.30
2017-09-12T11:39:43.312Z,70.50
2017-09-12T11:42:10.456Z,71.40
2017-09-12T11:44:37.685Z,71.40
2017-09-12T11:47:05.603Z,71.60
2017-09-12T11:49:32.199Z,71.60
2017-09-12T11:51:59.863Z,70.60
2017-09-12T11:54:26.185Z,70.60
2017-09-12T11:56:52.420Z,71.00
2017-09-12T11:59:18.636Z,69.90
2017-09-12T12:01:45.138Z,70.20
2017-09-12T12:04:12.790Z,69.80
2017-09-12T12:06:39.565Z,69.80
2017-09-12T12:09:05.923Z,70.20
2017-09-12T12:11:32.679Z,70.70
2017-09-12T12:13:59.664Z,68.50
2017-09-12T12:16:26.370Z,68.50
2017-09-12T12:18:53.493Z,67.60
2017-09-12T12:21:19.740Z,67.60
2017-09-12T12:23:47.074Z,67.00
2017-09-12T12:26:13.709Z,67.00
2017-09-12T12:28:40.673Z,67.00
2017-09-12T12:31:07.666Z,67.20
2017-09-12T12:33:33.951Z,67.20
2017-09-12T12:36:00.947Z,67.10
2017-09-12T12:38:28.343Z,67.10
2017-09-12T12:40:55.649Z,70.10
2017-09-12T12:43:22.688Z,69.10
2017-09-12T12:45:49.326Z,69.10
2017-09-12T12:48:15.602Z,68.60
2017-09-12T12:50:41.796Z,69.70
2017-09-12T12:53:08.598Z,70.40
2017-09-12T12:55:35.554Z,71.30
2017-09-12T12:58:01.789Z,71.30
2017-09-12T13:00:28.187Z,70.80
2017-09-12T13:02:55.572Z,71.30
2017-09-12T13:05:21.870Z,71.50
2017-09-12T13:07:48.812Z,72.00
2017-09-12T13:10:15.045Z,71.90
2017-09-12T13:12:42.484Z,72.30
2017-09-12T13:15:09.528Z,72.30
2017-09-12T13:17:36.028Z,72.80
2017-09-12T13:20:02.249Z,71.50
2017-09-12T13:22:28.995Z,71.40
2017-09-12T13:24:56.042Z,71.60
2017-09-12T13:27:22.274Z,72.30
2017-09-12T13:29:48.557Z,71.50
2017-09-12T13:32:15.822Z,70.70
2017-09-12T13:34:42.968Z,70.70
2017-09-12T13:37:10.119Z,70.70
2017-09-12T13:39:36.882Z,70.70
2017-09-12T13:42:03.663Z,70.80
2017-09-12T13:44:30.643Z,71.40
2017-09-12T13:46:57.606Z,70.70
2017-09-12T13:49:23.857Z,70.70
2017-09-12T13:51:50.149Z,71.80
2017-09-12T13:54:16.482Z,71.80
2017-09-12T13:56:43.593Z,71.40
2017-09-12T13:59:11.697Z,72.20
2017-09-12T14:01:38.611Z,72.00
2017-09-12T14:04:05.379Z,71.90
2017-09-12T14:06:31.636Z,71.40
2017-09-12T14:08:57.890Z,72.10
2017-09-12T14:11:24.154Z,71.30
2017-09-12T14:13:51.097Z,70.40
2017-09-12T14:16:18.080Z,70.30
2017-09-12T14:18:45.265Z,70.30
2017-09-12T14:21:11.501Z,69.40
2017-09-12T14:23:38.445Z,67.10
2017-09-12T14:26:04.713Z,67.00
2017-09-12T14:28:32.099Z,64.50
2017-09-12T14:30:58.313Z,65.10
2017-09-12T14:33:25.064Z,65.30
2017-09-12T14:35:51.296Z,62.80
2017-09-12T14:38:18.052Z,62.00
2017-09-12T14:40:45.127Z,61.80
2017-09-12T14:43:12.779Z,58.80
2017-09-12T14:45:39.045Z,58.70
2017-09-12T14:57:51.363Z,58.90
2017-09-12T15:00:17.564Z,61.90
2017-09-12T15:02:44.342Z,59.70
2017-09-12T15:05:11.135Z,60.30
2017-09-12T15:07:37.903Z,60.60
2017-09-12T15:10:04.153Z,60.60
2017-09-12T15:12:30.646Z,61.20
2017-09-12T15:14:57.677Z,61.30
2017-09-12T15:17:24.545Z,61.30
2017-09-12T15:19:50.796Z,60.80
2017-09-12T15:22:17.042Z,60.80
2017-09-12T15:24:43.300Z,61.40
2017-09-12T15:27:09.667Z,61.30
2017-09-12T15:29:35.884Z,62.10
2017-09-12T15:32:02.133Z,62.70
2017-09-12T15:34:28.869Z,61.60
2017-09-12T15:36:55.092Z,61.50
2017-09-12T15:39:22.827Z,61.60
2017-09-12T15:41:49.045Z,61.90
2017-09-12T15:44:15.848Z,61.60
2017-09-12T15:46:43.075Z,61.70
2017-09-12T15:49:09.271Z,61.40
2017-09-12T15:51:35.542Z,60.50
2017-09-12T15:54:01.841Z,61.10
2017-09-12T15:56:28.405Z,61.10
2017-09-12T15:58:55.428Z,60.60
2017-09-12T16:01:21.673Z,60.50
2017-09-12T16:03:47.885Z,61.00
2017-09-12T16:06:14.129Z,61.40
2017-09-12T16:08:40.335Z,61.70
2017-09-12T16:11:06.904Z,62.20
2017-09-12T16:13:33.590Z,62.30
2017-09-12T16:16:00.366Z,62.50
2017-09-12T16:18:26.597Z,62.80
2017-09-12T16:20:53.815Z,62.60
2017-09-12T16:23:20.026Z,62.80
2017-09-12T16:25:46.995Z,62.60
2017-09-12T16:28:15.076Z,62.60
2017-09-12T16:30:41.293Z,62.80
2017-09-12T16:33:07.521Z,62.30
2017-09-12T16:35:34.688Z,62.50
2017-09-12T16:38:01.000Z,62.40
2017-09-12T16:40:27.228Z,61.30
2017-09-12T16:42:53.954Z,60.80
2017-09-12T16:45:20.245Z,60.90
2017-09-12T16:47:46.471Z,60.70
2017-09-12T16:50:13.715Z,61.20
2017-09-12T16:52:39.928Z,61.50
2017-09-12T16:55:06.243Z,60.90
2017-09-12T16:57:33.003Z,61.40
2017-09-12T16:59:59.202Z,61.50
2017-09-12T17:02:26.415Z,61.60
2017-09-12T17:04:53.958Z,62.10
2017-09-12T17:07:20.780Z,62.00
2017-09-12T17:09:46.985Z,62.10
2017-09-12T17:12:13.801Z,62.40
2017-09-12T17:14:40.766Z,62.70
2017-09-12T17:17:06.969Z,62.60
2017-09-12T17:19:33.977Z,63.10
2017-09-12T17:22:00.862Z,63.10
2017-09-12T17:24:27.346Z,62.80
2017-09-12T17:26:53.580Z,63.20
2017-09-12T17:29:20.308Z,63.00
2017-09-12T17:31:46.643Z,63.40
2017-09-12T17:34:12.861Z,64.50
2017-09-12T17:36:39.613Z,63.50
2017-09-12T17:39:05.856Z,63.60
2017-09-12T17:41:33.106Z,63.90
2017-09-12T17:44:00.289Z,64.30
2017-09-12T17:46:26.616Z,65.00
2017-09-12T17:48:54.171Z,65.50
2017-09-12T17:51:21.157Z,65.10
2017-09-12T17:53:47.473Z,65.10
2017-09-12T17:56:13.995Z,64.90
2017-09-12T17:58:40.262Z,64.90
2017-09-12T18:01:07.589Z,65.00
2017-09-12T18:03:33.857Z,64.50
2017-09-12T18:06:00.678Z,64.50
2017-09-12T18:08:27.389Z,64.20
2017-09-12T18:10:53.845Z,63.90
2017-09-12T18:13:21.707Z,64.20
2017-09-12T18:15:48.800Z,64.40
2017-09-12T18:18:16.491Z,64.90
2017-09-12T18:20:43.560Z,64.80
2017-09-12T18:23:09.854Z,64.80
2017-09-12T18:25:37.026Z,65.40
2017-09-12T18:28:03.313Z,65.30
2017-09-12T18:30:29.914Z,66.10
2017-09-12T18:32:57.266Z,65.90
2017-09-12T18:35:24.365Z,65.70
2017-09-12T18:37:51.388Z,66.30
2017-09-12T18:40:18.230Z,66.20
2017-09-12T18:42:44.496Z,66.90
2017-09-12T18:45:11.811Z,68.50
2017-09-12T18:47:38.823Z,68.80
2017-09-12T18:50:05.120Z,68.60
2017-09-12T18:52:32.650Z,69.60
2017-09-12T18:54:59.917Z,69.50
2017-09-12T18:57:26.216Z,68.90
2017-09-12T18:59:52.986Z,70.70
2017-09-12T19:02:19.235Z,71.20
2017-09-12T19:04:46.393Z,72.40
2017-09-12T19:07:13.353Z,71.20
2017-09-12T19:09:39.614Z,71.20
2017-09-12T19:12:05.808Z,71.00
2017-09-12T19:14:32.396Z,73.00
2017-09-12T19:16:58.652Z,72.30
2017-09-12T19:19:25.594Z,70.80
2017-09-12T19:21:53.154Z,70.50
2017-09-12T19:24:20.824Z,71.70
2017-09-12T19:26:48.482Z,71.20
2017-09-12T19:29:15.941Z,70.60
2017-09-12T19:31:42.915Z,70.50
2017-09-12T19:34:09.820Z,70.50
2017-09-12T19:36:37.336Z,70.10
2017-09-12T19:39:03.664Z,70.00
2017-09-12T19:41:29.878Z,69.80
2017-09-12T19:43:56.637Z,70.10
2017-09-12T19:46:23.377Z,69.70
2017-09-12T19:48:50.308Z,71.20
2017-09-12T19:51:17.065Z,70.20
2017-09-12T19:53:43.308Z,70.70
2017-09-12T19:56:09.784Z,70.20
2017-09-12T19:58:36.940Z,69.50
2017-09-12T20:01:03.163Z,69.50
2017-09-12T20:03:29.393Z,69.30
2017-09-12T20:05:56.288Z,69.90
2017-09-12T20:10:56.222Z,69.60
2017-09-12T20:13:22.468Z,69.60
2017-09-12T20:15:50.090Z,68.90
2017-09-12T20:18:16.855Z,68.90
2017-09-12T20:20:43.072Z,69.00
2017-09-12T20:23:09.971Z,68.40
2017-09-12T20:25:36.925Z,68.00
2017-09-12T20:28:03.680Z,68.00
2017-09-12T20:30:29.906Z,68.20
2017-09-12T20:32:56.501Z,68.50
2017-09-12T20:35:24.528Z,68.90
2017-09-12T20:37:51.294Z,68.90
2017-09-12T20:40:18.836Z,69.20
2017-09-12T20:42:45.052Z,69.20
2017-09-12T20:45:11.344Z,69.00
2017-09-12T20:47:37.813Z,69.50
2017-09-12T20:50:05.021Z,70.00
2017-09-12T20:52:31.233Z,69.80
2017-09-12T20:54:58.280Z,70.30
2017-09-12T20:57:25.241Z,70.90
2017-09-12T20:59:51.507Z,70.90
2017-09-12T21:02:17.704Z,70.90
2017-09-12T21:04:43.933Z,70.80
2017-09-12T21:07:10.144Z,70.80
2017-09-12T21:09:37.136Z,70.80
2017-09-12T21:12:04.062Z,70.90
2017-09-12T21:14:30.826Z,70.70
2017-09-12T21:16:57.828Z,70.60
2017-09-12T21:19:24.055Z,70.70
2017-09-12T21:21:50.292Z,70.80
2017-09-12T21:24:16.495Z,70.50
2017-09-12T21:26:43.805Z,70.50
2017-09-12T21:29:10.707Z,70.50
2017-09-12T21:31:37.318Z,70.80
2017-09-12T21:34:06.663Z,71.20
2017-09-12T21:36:32.868Z,71.20
2017-09-12T21:38:59.612Z,70.90
2017-09-12T21:41:25.816Z,70.90
2017-09-12T21:43:52.805Z,70.80
2017-09-12T21:46:19.701Z,70.80
2017-09-12T21:48:47.296Z,70.30
2017-09-12T21:51:13.523Z,70.30
2017-09-12T21:53:40.140Z,70.40
2017-09-12T21:56:07.698Z,70.20
2017-09-12T21:58:35.239Z,70.50
2017-09-12T22:01:02.007Z,70.40
2017-09-12T22:03:28.774Z,70.70
2017-09-12T22:05:55.516Z,71.00
2017-09-12T22:08:21.722Z,70.70
2017-09-12T22:10:48.452Z,71.30
2017-09-12T22:13:16.720Z,72.10
2017-09-12T22:15:43.481Z,72.10
2017-09-12T22:18:11.479Z,72.30
2017-09-12T22:20:37.729Z,72.30
2017-09-12T22:23:03.961Z,73.00
2017-09-12T22:25:30.162Z,72.90
2017-09-12T22:27:56.393Z,72.30
2017-09-12T22:30:22.587Z,72.50
2017-09-12T22:32:49.787Z,72.80
2017-09-12T22:35:15.973Z,72.60
2017-09-12T22:37:43.172Z,72.80
2017-09-12T22:40:09.533Z,73.70
2017-09-12T22:42:37.101Z,73.60
2017-09-12T22:45:03.324Z,73.60
2017-09-12T22:47:29.506Z,73.00
2017-09-12T22:49:55.733Z,73.30
2017-09-12T22:52:21.925Z,73.10
2017-09-12T22:54:48.787Z,73.00
2017-09-12T22:57:15.319Z,72.90
2017-09-12T22:59:42.812Z,73.80
2017-09-12T23:02:10.813Z,73.60
2017-09-12T23:04:37.097Z,73.60
2017-09-12T23:07:03.321Z,73.20
2017-09-12T23:09:30.123Z,73.00
2017-09-12T23:11:56.909Z,73.90
2017-09-12T23:14:23.120Z,73.10
2017-09-12T23:16:49.326Z,72.70
2017-09-12T23:19:16.137Z,73.00
2017-09-12T23:21:43.655Z,73.20
2017-09-12T23:24:10.397Z,73.20
2017-09-12T23:26:37.214Z,73.00
2017-09-12T23:29:03.428Z,72.80
2017-09-12T23:31:29.953Z,72.80
2017-09-12T23:33:56.192Z,74.20
2017-09-12T23:36:23.260Z,73.70
2017-09-12T23:38:50.262Z,74.70
2017-09-12T23:41:17.439Z,74.20
2017-09-12T23:43:43.681Z,74.10
2017-09-12T23:46:10.280Z,74.00
2017-09-12T23:48:36.495Z,74.20
2017-09-12T23:51:03.479Z,73.80
2017-09-12T23:53:29.709Z,73.80
2017-09-12T23:55:56.203Z,74.00
2017-09-12T23:58:23.256Z,75.40
